createdAt,value
2022-11-11T00:01:00.117Z,25.00
2022-11-11T00:03:49.529Z,23.50
2022-11-11T00:06:39.195Z,15.90
2022-11-11T00:09:29.530Z,17.10
2022-11-11T00:12:19.258Z,16.80
2022-11-11T00:15:10.562Z,21.40
2022-11-11T00:18:17.299Z,22.30
2022-11-11T00:21:28.553Z,17.80
2022-11-11T00:24:43.089Z,21.20
2022-11-11T00:27:32.565Z,18.50
2022-11-11T00:30:22.136Z,22.40
2022-11-11T00:33:11.317Z,22.60
2022-11-11T00:36:01.295Z,18.50
2022-11-11T00:38:52.878Z,23.00
2022-11-11T00:41:42.240Z,21.50
2022-11-11T00:44:31.497Z,23.90
2022-11-11T00:47:38.498Z,19.30
2022-11-11T00:50:50.082Z,16.50
2022-11-11T00:53:40.771Z,14.00
2022-11-11T00:56:30.713Z,21.80
2022-11-11T00:59:19.774Z,22.90
2022-11-11T01:02:08.998Z,17.70
2022-11-11T01:04:58.136Z,21.50
2022-11-11T01:07:50.241Z,16.30
2022-11-11T01:10:41.978Z,20.70
2022-11-11T01:13:34.472Z,24.20
2022-11-11T01:19:12.898Z,20.90
2022-11-11T01:22:02.817Z,23.00
2022-11-11T01:24:52.453Z,18.50
2022-11-11T01:27:41.969Z,26.20
2022-11-11T01:30:32.112Z,17.50
2022-11-11T01:33:21.658Z,27.50
2022-11-11T01:36:13.648Z,17.60
2022-11-11T01:39:03.625Z,16.40
2022-11-11T01:41:55.898Z,23.30
2022-11-11T01:44:49.778Z,19.70
2022-11-11T01:51:01.483Z,18.10
2022-11-11T01:53:56.476Z,24.60
2022-11-11T01:56:48.034Z,26.20
2022-11-11T01:59:40.756Z,25.00
2022-11-11T02:02:38.794Z,23.50
2022-11-11T02:05:45.625Z,21.20
2022-11-11T02:08:38.014Z,24.20
2022-11-11T02:11:47.772Z,22.40
2022-11-11T02:14:43.279Z,21.20
2022-11-11T02:17:34.888Z,20.20
2022-11-11T02:20:28.314Z,17.00
2022-11-11T02:23:23.878Z,24.40
2022-11-11T02:26:18.146Z,22.20
2022-11-11T02:29:14.626Z,23.10
2022-11-11T02:32:04.037Z,18.30
2022-11-11T02:34:53.208Z,19.70
2022-11-11T02:37:46.973Z,18.40
2022-11-11T02:41:02.297Z,20.80
2022-11-11T02:43:51.898Z,19.00
2022-11-11T02:46:41.402Z,17.90
2022-11-11T02:49:30.848Z,17.30
2022-11-11T02:52:20.422Z,17.10
2022-11-11T02:55:11.175Z,18.30
2022-11-11T02:58:00.880Z,21.30
2022-11-11T03:00:50.431Z,20.50
2022-11-11T03:03:39.863Z,25.10
2022-11-11T03:06:29.561Z,21.50
2022-11-11T03:09:18.837Z,20.90
2022-11-11T03:12:08.655Z,17.20
2022-11-11T03:14:57.890Z,14.70
2022-11-11T03:17:47.204Z,16.60
2022-11-11T03:20:54.137Z,20.00
2022-11-11T03:23:43.688Z,19.90
2022-11-11T03:26:32.710Z,20.40
2022-11-11T03:29:22.254Z,18.40
2022-11-11T03:32:11.425Z,23.80
2022-11-11T03:35:00.799Z,20.90
2022-11-11T03:38:07.594Z,23.20
2022-11-11T03:40:59.110Z,22.30
2022-11-11T03:43:48.231Z,24.70
2022-11-11T03:46:37.702Z,23.10
2022-11-11T03:49:26.857Z,24.30
2022-11-11T03:52:16.272Z,25.90
2022-11-11T03:55:06.066Z,27.80
2022-11-11T03:57:55.683Z,19.30
2022-11-11T04:00:46.044Z,20.80
2022-11-11T04:03:52.849Z,25.50
2022-11-11T04:07:00.283Z,25.00
2022-11-11T04:10:07.082Z,25.70
2022-11-11T04:13:13.946Z,24.00
2022-11-11T04:16:09.617Z,26.20
2022-11-11T04:19:16.786Z,22.30
2022-11-11T04:22:06.417Z,25.70
2022-11-11T04:25:12.740Z,25.00
2022-11-11T04:28:15.953Z,21.90
2022-11-11T04:31:05.406Z,24.30
2022-11-11T04:33:54.796Z,22.80
2022-11-11T04:36:43.778Z,26.30
2022-11-11T04:39:50.237Z,29.80
2022-11-11T04:42:40.417Z,29.50
2022-11-11T04:45:31.580Z,24.20
2022-11-11T04:48:21.183Z,27.00
2022-11-11T04:51:10.759Z,29.50
2022-11-11T04:54:00.394Z,25.70
2022-11-11T04:56:50.273Z,29.00
2022-11-11T04:59:39.465Z,29.10
2022-11-11T05:02:45.976Z,23.70
2022-11-11T05:05:55.697Z,27.30
2022-11-11T05:08:59.097Z,27.00
2022-11-11T05:11:48.674Z,22.60
2022-11-11T05:14:55.737Z,15.80
2022-11-11T05:18:11.427Z,22.20
2022-11-11T05:21:18.654Z,23.00
2022-11-11T05:24:26.816Z,21.10
2022-11-11T05:27:16.328Z,23.60
2022-11-11T05:30:07.461Z,22.50
2022-11-11T05:32:58.521Z,32.60
2022-11-11T05:35:47.830Z,38.20
2022-11-11T05:38:37.043Z,27.70
2022-11-11T05:41:26.497Z,33.90
2022-11-11T05:44:15.664Z,32.30
2022-11-11T05:47:05.553Z,39.40
2022-11-11T05:49:54.524Z,34.20
2022-11-11T05:52:50.630Z,32.40
2022-11-11T05:55:39.930Z,38.10
2022-11-11T05:58:28.877Z,34.40
2022-11-11T06:01:18.457Z,36.60
2022-11-11T06:04:12.467Z,32.80
2022-11-11T06:07:04.525Z,36.20
2022-11-11T06:10:14.063Z,37.80
2022-11-11T06:13:05.154Z,34.40
2022-11-11T06:15:54.152Z,37.80
2022-11-11T06:18:43.906Z,32.90
2022-11-11T06:22:06.232Z,37.90
2022-11-11T06:25:15.686Z,33.10
2022-11-11T06:28:05.182Z,31.60
2022-11-11T06:30:54.846Z,36.60
2022-11-11T06:33:44.340Z,36.30
2022-11-11T06:36:33.681Z,35.90
2022-11-11T06:39:22.764Z,38.60
2022-11-11T06:42:11.999Z,45.40
2022-11-11T06:45:01.158Z,42.30
2022-11-11T06:47:52.780Z,38.30
2022-11-11T06:50:41.751Z,37.80
2022-11-11T06:53:30.791Z,38.70
2022-11-11T06:56:19.766Z,39.00
2022-11-11T06:59:09.255Z,38.00
2022-11-11T07:01:58.617Z,35.30
2022-11-11T07:04:48.170Z,37.20
2022-11-11T07:07:37.296Z,35.30
2022-11-11T07:10:28.691Z,40.30
2022-11-11T07:16:06.898Z,39.50
2022-11-11T07:18:56.730Z,47.70
2022-11-11T07:21:46.299Z,41.30
2022-11-11T07:24:35.729Z,43.10
2022-11-11T07:27:25.277Z,58.50
2022-11-11T07:30:15.842Z,41.20
2022-11-11T07:33:05.311Z,63.90
2022-11-11T07:35:54.856Z,48.10
2022-11-11T07:38:44.496Z,48.90
2022-11-11T07:41:33.755Z,49.40
2022-11-11T07:44:23.088Z,49.30
2022-11-11T07:47:12.277Z,53.30
2022-11-11T07:50:07.570Z,64.70
2022-11-11T07:52:57.361Z,52.90
2022-11-11T07:55:47.943Z,54.70
2022-11-11T07:58:37.539Z,65.20
2022-11-11T08:01:26.763Z,62.80
2022-11-11T08:04:16.305Z,59.20
2022-11-11T08:07:05.918Z,68.80
2022-11-11T08:09:55.316Z,62.70
2022-11-11T08:13:02.559Z,73.60
2022-11-11T08:15:52.024Z,73.70
2022-11-11T08:18:41.446Z,86.60
2022-11-11T08:21:31.053Z,78.80
2022-11-11T08:27:29.378Z,73.50
2022-11-11T08:30:19.417Z,82.10
2022-11-11T08:36:20.980Z,77.50
2022-11-11T08:39:11.824Z,72.80
2022-11-11T08:42:01.352Z,72.30
2022-11-11T08:44:51.948Z,71.90
2022-11-11T08:47:41.758Z,55.70
2022-11-11T08:50:31.446Z,60.90
2022-11-11T08:53:24.305Z,52.50
2022-11-11T08:56:13.913Z,53.40
2022-11-11T08:59:03.327Z,58.00
2022-11-11T09:01:53.173Z,56.50
2022-11-11T09:04:45.549Z,50.00
2022-11-11T09:07:36.303Z,47.50
2022-11-11T09:10:25.800Z,46.40
2022-11-11T09:13:15.149Z,57.90
2022-11-11T09:16:04.928Z,61.10
2022-11-11T09:18:54.110Z,77.10
2022-11-11T09:21:46.414Z,62.00
2022-11-11T09:24:35.791Z,67.50
2022-11-11T09:27:25.462Z,64.30
2022-11-11T09:30:16.202Z,67.80
2022-11-11T09:33:05.737Z,83.30
2022-11-11T09:35:54.867Z,73.50
2022-11-11T09:38:44.372Z,70.30
2022-11-11T09:41:51.868Z,66.90
2022-11-11T09:45:02.028Z,62.20
2022-11-11T09:48:04.096Z,61.70
2022-11-11T09:51:00.811Z,57.60
2022-11-11T09:53:55.608Z,62.50
2022-11-11T09:56:45.906Z,69.40
2022-11-11T09:59:43.500Z,54.90
2022-11-11T10:02:41.836Z,58.10
2022-11-11T10:05:38.601Z,57.90
2022-11-11T10:08:30.959Z,61.20
2022-11-11T10:11:26.309Z,55.70
2022-11-11T10:14:16.017Z,57.00
2022-11-11T10:17:16.653Z,67.50
2022-11-11T10:20:17.576Z,53.80
2022-11-11T10:23:16.737Z,51.90
2022-11-11T10:26:12.485Z,51.00
2022-11-11T10:29:05.524Z,47.70
2022-11-11T10:32:01.761Z,45.80
2022-11-11T10:34:53.795Z,45.50
2022-11-11T10:37:45.475Z,52.30
2022-11-11T10:40:41.983Z,43.90
2022-11-11T10:43:32.126Z,39.40
2022-11-11T10:46:26.039Z,36.00
2022-11-11T10:49:20.534Z,34.40
2022-11-11T10:52:15.227Z,37.90
2022-11-11T10:55:10.870Z,37.70
2022-11-11T10:58:04.325Z,38.80
2022-11-11T11:00:56.490Z,38.50
2022-11-11T11:03:53.530Z,36.50
2022-11-11T11:06:47.631Z,40.10
2022-11-11T11:09:43.749Z,43.10
2022-11-11T11:12:41.229Z,44.30
2022-11-11T11:15:33.071Z,39.80
2022-11-11T11:21:10.939Z,37.20
2022-11-11T11:24:00.526Z,42.70
2022-11-11T11:26:52.342Z,51.90
2022-11-11T11:29:43.544Z,49.20
2022-11-11T11:32:33.788Z,44.80
2022-11-11T11:35:38.637Z,46.40
2022-11-11T11:38:43.497Z,43.10
2022-11-11T11:41:43.431Z,44.50
2022-11-11T11:44:34.150Z,48.00
2022-11-11T11:47:40.003Z,43.80
2022-11-11T11:50:42.363Z,44.50
2022-11-11T11:53:49.675Z,38.80
2022-11-11T11:56:42.947Z,45.00
2022-11-11T11:59:40.595Z,41.20
2022-11-11T12:06:20.603Z,43.00
2022-11-11T12:09:21.935Z,46.30
2022-11-11T12:12:25.103Z,43.20
2022-11-11T12:15:32.723Z,44.80
2022-11-11T12:18:41.572Z,38.70
2022-11-11T12:21:39.174Z,40.90
2022-11-11T12:24:42.702Z,39.80
2022-11-11T12:27:40.061Z,43.40
2022-11-11T12:30:29.644Z,48.10
2022-11-11T12:33:37.908Z,45.20
2022-11-11T12:36:36.269Z,49.40
2022-11-11T12:39:47.069Z,52.30
2022-11-11T12:42:51.554Z,52.70
2022-11-11T12:45:48.561Z,53.30
2022-11-11T12:48:51.618Z,63.30
2022-11-11T12:51:55.813Z,56.80
2022-11-11T12:54:55.905Z,52.50
2022-11-11T12:58:00.296Z,60.60
2022-11-11T13:01:01.140Z,67.10
2022-11-11T13:04:03.394Z,79.90
2022-11-11T13:07:15.057Z,68.40
2022-11-11T13:10:14.974Z,63.70
2022-11-11T13:13:16.355Z,66.30
2022-11-11T13:16:05.777Z,70.00
2022-11-11T13:19:04.517Z,68.20
2022-11-11T13:22:02.696Z,67.00
2022-11-11T13:24:53.780Z,74.50
2022-11-11T13:30:50.150Z,70.70
2022-11-11T13:33:43.692Z,79.50
2022-11-11T13:36:51.409Z,78.20
2022-11-11T13:39:47.427Z,74.80
2022-11-11T13:42:41.543Z,80.60
2022-11-11T13:45:35.234Z,87.70
2022-11-11T13:48:28.720Z,73.30
2022-11-11T13:51:31.307Z,80.70
2022-11-11T13:54:31.260Z,87.10
2022-11-11T13:57:26.939Z,86.50
2022-11-11T14:00:30.824Z,88.90
2022-11-11T14:03:36.597Z,83.70
2022-11-11T14:06:57.861Z,83.00
2022-11-11T14:10:10.840Z,105.20
2022-11-11T14:13:19.483Z,101.60
2022-11-11T14:16:13.247Z,95.90
2022-11-11T14:19:14.784Z,88.80
2022-11-11T14:22:17.950Z,96.10
2022-11-11T14:25:23.684Z,99.40
2022-11-11T14:28:27.969Z,89.60
2022-11-11T14:31:55.517Z,96.50
2022-11-11T14:35:08.256Z,131.10
2022-11-11T14:38:16.581Z,130.20
2022-11-11T14:41:36.581Z,98.30
2022-11-11T14:44:45.478Z,116.40
2022-11-11T14:47:40.739Z,124.20
2022-11-11T14:50:45.990Z,122.00
2022-11-11T14:53:39.315Z,129.10
2022-11-11T14:56:30.727Z,132.80
2022-11-11T14:59:23.617Z,125.80
2022-11-11T15:02:26.388Z,126.20
2022-11-11T15:05:20.065Z,119.30
2022-11-11T15:08:33.965Z,129.10
2022-11-11T15:11:32.654Z,136.40
2022-11-11T15:14:34.751Z,128.50
2022-11-11T15:17:35.770Z,135.10
2022-11-11T15:20:43.497Z,139.80
2022-11-11T15:23:42.651Z,118.90
2022-11-11T15:26:37.467Z,128.30
2022-11-11T15:29:43.236Z,115.40
2022-11-11T15:32:44.271Z,117.60
2022-11-11T15:35:42.569Z,98.40
2022-11-11T15:38:31.991Z,121.00
2022-11-11T15:41:34.882Z,120.00
2022-11-11T15:44:27.503Z,146.90
2022-11-11T15:47:19.063Z,110.20
2022-11-11T15:50:20.028Z,110.00
2022-11-11T15:53:15.743Z,102.90
2022-11-11T15:56:05.104Z,110.40
2022-11-11T15:58:54.521Z,113.90
2022-11-11T16:01:44.441Z,124.80
2022-11-11T16:04:54.997Z,115.00
2022-11-11T16:07:45.572Z,125.90
2022-11-11T16:10:37.128Z,118.20
2022-11-11T16:13:33.586Z,111.40
2022-11-11T16:16:27.326Z,115.00
2022-11-11T16:19:24.915Z,101.90
2022-11-11T16:22:20.986Z,110.90
2022-11-11T16:25:18.610Z,108.50
2022-11-11T16:28:08.209Z,103.40
2022-11-11T16:30:57.781Z,103.90
2022-11-11T16:33:47.330Z,121.50
2022-11-11T16:36:36.857Z,86.90
2022-11-11T16:39:29.523Z,90.60
2022-11-11T16:42:24.870Z,87.50
2022-11-11T16:45:23.246Z,83.50
2022-11-11T16:48:41.621Z,82.30
2022-11-11T16:51:43.157Z,76.20
2022-11-11T16:54:37.303Z,92.00
2022-11-11T16:57:30.875Z,74.80
2022-11-11T17:00:22.956Z,82.30
2022-11-11T17:03:15.268Z,85.10
2022-11-11T17:06:07.988Z,73.10
2022-11-11T17:08:59.783Z,74.20
2022-11-11T17:11:49.095Z,71.10
2022-11-11T17:14:39.714Z,67.70
2022-11-11T17:17:32.256Z,77.40
2022-11-11T17:20:23.291Z,91.00
2022-11-11T17:23:12.751Z,80.80
2022-11-11T17:26:03.450Z,88.10
2022-11-11T17:28:52.729Z,72.90
2022-11-11T17:31:41.820Z,86.80
2022-11-11T17:34:31.753Z,103.00
2022-11-11T17:37:21.232Z,96.80
2022-11-11T17:40:12.730Z,115.20
2022-11-11T17:43:02.019Z,110.00
2022-11-11T17:45:51.808Z,100.80
2022-11-11T17:48:40.863Z,106.60
2022-11-11T17:51:30.208Z,106.20
2022-11-11T17:54:19.121Z,104.00
2022-11-11T17:57:08.220Z,99.00
2022-11-11T17:59:57.471Z,115.30
2022-11-11T18:02:46.536Z,102.30
2022-11-11T18:05:42.411Z,98.10
2022-11-11T18:08:33.257Z,100.50
2022-11-11T18:11:22.279Z,126.80
2022-11-11T18:14:12.017Z,111.30
2022-11-11T18:17:01.320Z,105.10
2022-11-11T18:19:50.593Z,122.20
2022-11-11T18:22:39.718Z,92.80
2022-11-11T18:25:28.916Z,113.20
2022-11-11T18:28:18.279Z,94.10
2022-11-11T18:31:09.922Z,88.40
2022-11-11T18:33:59.190Z,91.40
2022-11-11T18:36:48.573Z,86.30
2022-11-11T18:39:37.822Z,101.50
2022-11-11T18:42:27.131Z,97.30
2022-11-11T18:45:16.613Z,103.20
2022-11-11T18:48:06.177Z,94.40
2022-11-11T18:50:57.122Z,83.70
2022-11-11T18:53:46.435Z,78.20
2022-11-11T18:56:40.161Z,91.50
2022-11-11T18:59:29.251Z,76.70
2022-11-11T19:02:20.917Z,81.80
2022-11-11T19:05:11.254Z,77.40
2022-11-11T19:08:00.861Z,93.90
2022-11-11T19:10:52.195Z,79.50
2022-11-11T19:13:41.582Z,78.80
2022-11-11T19:16:32.437Z,66.30
2022-11-11T19:19:21.909Z,67.00
2022-11-11T19:22:11.259Z,78.60
2022-11-11T19:25:00.362Z,68.90
2022-11-11T19:27:49.486Z,74.80
2022-11-11T19:30:38.937Z,58.60
2022-11-11T19:33:28.208Z,65.00
2022-11-11T19:36:19.762Z,67.80
2022-11-11T19:39:10.802Z,65.00
2022-11-11T19:42:00.174Z,63.00
2022-11-11T19:44:49.202Z,62.60
2022-11-11T19:47:38.551Z,59.90
2022-11-11T19:50:27.894Z,57.20
2022-11-11T19:53:18.120Z,67.80
2022-11-11T19:56:09.900Z,64.00
2022-11-11T19:58:59.627Z,68.10
2022-11-11T20:01:50.546Z,59.80
2022-11-11T20:04:39.683Z,68.80
2022-11-11T20:07:29.058Z,65.30
2022-11-11T20:10:18.283Z,58.60
2022-11-11T20:13:07.882Z,55.60
2022-11-11T20:15:56.998Z,59.70
2022-11-11T20:18:46.136Z,58.50
2022-11-11T20:21:35.166Z,58.80
2022-11-11T20:24:24.506Z,55.80
2022-11-11T20:27:13.712Z,60.30
2022-11-11T20:30:02.754Z,57.20
2022-11-11T20:32:52.088Z,61.40
2022-11-11T20:35:41.290Z,53.50
2022-11-11T20:38:31.756Z,55.90
2022-11-11T20:41:21.752Z,59.80
2022-11-11T20:44:11.438Z,54.10
2022-11-11T20:47:00.730Z,54.00
2022-11-11T20:49:50.236Z,50.50
2022-11-11T20:52:39.700Z,50.60
2022-11-11T20:55:28.822Z,48.10
2022-11-11T20:58:19.189Z,51.10
2022-11-11T21:01:10.884Z,51.60
2022-11-11T21:04:01.380Z,43.00
2022-11-11T21:06:50.656Z,45.60
2022-11-11T21:09:39.940Z,48.50
2022-11-11T21:12:29.331Z,41.20
2022-11-11T21:15:18.797Z,41.40
2022-11-11T21:18:08.261Z,44.90
2022-11-11T21:20:57.700Z,41.20
2022-11-11T21:23:47.785Z,44.10
2022-11-11T21:26:37.876Z,42.90
2022-11-11T21:29:27.357Z,42.40
2022-11-11T21:32:16.863Z,46.40
2022-11-11T21:35:06.244Z,43.90
2022-11-11T21:37:56.668Z,43.80
2022-11-11T21:40:45.768Z,47.60
2022-11-11T21:43:37.250Z,43.20
2022-11-11T21:46:28.428Z,44.10
2022-11-11T21:49:17.597Z,42.60
2022-11-11T21:52:06.933Z,40.00
2022-11-11T21:54:56.194Z,36.90
2022-11-11T21:57:45.513Z,34.40
2022-11-11T22:00:34.635Z,37.10
2022-11-11T22:03:23.666Z,34.50
2022-11-11T22:06:14.583Z,33.30
2022-11-11T22:09:05.067Z,37.00
2022-11-11T22:11:54.067Z,38.60
2022-11-11T22:14:43.329Z,38.00
2022-11-11T22:17:32.582Z,39.90
2022-11-11T22:20:22.060Z,32.90
2022-11-11T22:23:11.431Z,38.10
2022-11-11T22:26:03.838Z,38.00
2022-11-11T22:28:54.739Z,35.60
2022-11-11T22:31:44.722Z,41.40
2022-11-11T22:34:34.059Z,35.90
2022-11-11T22:37:23.581Z,38.10
2022-11-11T22:40:13.411Z,31.00
2022-11-11T22:43:02.888Z,35.40
2022-11-11T22:45:58.446Z,39.10
2022-11-11T22:48:52.151Z,38.90
2022-11-11T22:51:44.847Z,39.30
2022-11-11T22:54:34.054Z,32.00
2022-11-11T22:57:26.125Z,34.50
2022-11-11T23:00:17.274Z,47.50
2022-11-11T23:03:07.333Z,44.30
2022-11-11T23:06:02.753Z,44.40
2022-11-11T23:08:52.657Z,47.20
2022-11-11T23:11:42.584Z,45.10
2022-11-11T23:14:32.075Z,39.80
2022-11-11T23:17:21.081Z,41.90
2022-11-11T23:20:11.467Z,37.20
2022-11-11T23:23:02.161Z,39.80
2022-11-11T23:25:51.919Z,40.20
2022-11-11T23:28:42.660Z,46.90
2022-11-11T23:31:33.548Z,42.50
2022-11-11T23:34:22.882Z,51.90
2022-11-11T23:37:12.313Z,41.60
2022-11-11T23:40:01.567Z,38.40
2022-11-11T23:42:50.840Z,37.80
2022-11-11T23:45:41.990Z,43.60
2022-11-11T23:48:31.632Z,34.80
2022-11-11T23:51:21.969Z,42.20
2022-11-11T23:54:11.486Z,37.40
2022-11-11T23:57:00.474Z,37.10
2022-11-11T23:59:49.714Z,44.50
